createdAt,value
2023-03-02T00:00:16.466Z,83.00
2023-03-02T00:02:45.177Z,83.58
2023-03-02T00:05:14.461Z,83.48
2023-03-02T00:07:42.319Z,82.44
2023-03-02T00:10:11.173Z,81.55
2023-03-02T00:12:40.315Z,82.41
2023-03-02T00:15:09.268Z,83.66
2023-03-02T00:17:37.284Z,82.68
2023-03-02T00:20:12.011Z,81.77
2023-03-02T00:22:40.388Z,80.11
2023-03-02T00:25:09.020Z,81.62
2023-03-02T00:27:36.748Z,81.06
2023-03-02T00:30:07.607Z,81.60
2023-03-02T00:32:35.743Z,81.28
2023-03-02T00:35:03.572Z,80.51
2023-03-02T00:37:31.438Z,81.49
2023-03-02T00:39:59.201Z,80.73
2023-03-02T00:42:26.938Z,82.65
2023-03-02T00:44:54.828Z,82.06
2023-03-02T00:47:23.892Z,82.44
2023-03-02T00:49:51.611Z,82.47
2023-03-02T00:52:19.373Z,82.18
2023-03-02T00:54:47.130Z,80.61
2023-03-02T00:57:14.901Z,82.12
2023-03-02T00:59:42.821Z,82.46
2023-03-02T01:02:10.633Z,82.88
2023-03-02T01:04:41.452Z,83.49
2023-03-02T01:07:12.136Z,82.41
2023-03-02T01:09:41.435Z,82.54
2023-03-02T01:12:11.267Z,83.94
2023-03-02T01:14:40.497Z,82.08
2023-03-02T01:17:09.388Z,83.33
2023-03-02T01:19:39.040Z,84.52
2023-03-02T01:22:07.436Z,81.97
2023-03-02T01:24:35.303Z,82.98
2023-03-02T01:27:03.086Z,82.21
2023-03-02T01:29:30.914Z,82.34
2023-03-02T01:31:58.888Z,82.84
2023-03-02T01:34:28.111Z,82.92
2023-03-02T01:36:57.587Z,83.72
2023-03-02T01:39:25.379Z,83.07
2023-03-02T01:41:54.485Z,83.72
2023-03-02T01:44:41.612Z,82.42
2023-03-02T01:47:16.355Z,81.51
2023-03-02T01:49:49.258Z,81.14
2023-03-02T01:52:18.981Z,82.70
2023-03-02T01:54:49.737Z,81.00
2023-03-02T01:57:22.270Z,81.90
2023-03-02T01:59:53.563Z,81.05
2023-03-02T02:02:21.625Z,81.51
2023-03-02T02:04:50.976Z,82.77
2023-03-02T02:07:20.120Z,83.22
2023-03-02T02:09:50.937Z,81.54
2023-03-02T02:12:20.800Z,80.98
2023-03-02T02:14:49.564Z,81.98
2023-03-02T02:17:18.719Z,82.56
2023-03-02T02:19:57.056Z,81.40
2023-03-02T02:22:39.364Z,81.46
2023-03-02T02:25:18.365Z,80.69
2023-03-02T02:27:47.840Z,81.20
2023-03-02T02:30:17.337Z,82.01
2023-03-02T02:32:48.272Z,81.60
2023-03-02T02:35:19.778Z,83.79
2023-03-02T02:37:51.550Z,84.39
2023-03-02T02:40:23.272Z,83.89
2023-03-02T02:42:54.235Z,84.01
2023-03-02T02:45:25.247Z,83.97
2023-03-02T02:47:54.873Z,85.69
2023-03-02T02:50:27.053Z,85.03
2023-03-02T02:53:00.622Z,85.05
2023-03-02T02:55:28.170Z,85.31
2023-03-02T02:58:00.025Z,86.53
2023-03-02T03:00:28.468Z,84.12
2023-03-02T03:03:02.968Z,86.96
2023-03-02T03:05:30.773Z,84.94
2023-03-02T03:08:08.496Z,86.49
2023-03-02T03:10:40.404Z,86.59
2023-03-02T03:13:11.458Z,86.59
2023-03-02T03:15:39.610Z,86.32
2023-03-02T03:18:07.368Z,86.17
2023-03-02T03:20:35.293Z,86.59
2023-03-02T03:23:03.037Z,86.47
2023-03-02T03:25:32.075Z,87.19
2023-03-02T03:27:59.903Z,87.50
2023-03-02T03:30:29.000Z,86.17
2023-03-02T03:32:56.695Z,87.22
2023-03-02T03:35:24.526Z,86.32
2023-03-02T03:37:52.315Z,86.70
2023-03-02T03:40:20.357Z,86.27
2023-03-02T03:42:48.399Z,86.66
2023-03-02T03:45:16.170Z,86.71
2023-03-02T03:47:45.235Z,85.65
2023-03-02T03:50:13.048Z,85.61
2023-03-02T03:52:40.786Z,85.01
2023-03-02T03:55:09.526Z,84.41
2023-03-02T03:57:37.243Z,84.77
2023-03-02T04:00:08.986Z,85.05
2023-03-02T04:02:36.736Z,83.61
2023-03-02T04:05:07.171Z,84.14
2023-03-02T04:07:35.480Z,85.24
2023-03-02T04:10:04.431Z,83.82
2023-03-02T04:12:32.851Z,82.84
2023-03-02T04:15:00.591Z,83.13
2023-03-02T04:17:28.479Z,83.11
2023-03-02T04:19:56.760Z,83.28
2023-03-02T04:22:26.153Z,82.16
2023-03-02T04:24:54.136Z,79.92
2023-03-02T04:27:21.853Z,80.76
2023-03-02T04:29:52.885Z,79.59
2023-03-02T04:32:21.239Z,79.46
2023-03-02T04:34:48.991Z,80.91
2023-03-02T04:37:16.716Z,80.64
2023-03-02T04:39:50.152Z,80.85
2023-03-02T04:42:18.133Z,80.24
2023-03-02T04:44:45.842Z,80.60
2023-03-02T04:47:13.593Z,79.11
2023-03-02T04:49:41.790Z,79.25
2023-03-02T04:52:09.494Z,80.18
2023-03-02T04:54:37.324Z,80.37
2023-03-02T04:57:08.376Z,80.25
2023-03-02T04:59:36.161Z,78.36
2023-03-02T05:02:04.173Z,79.13
2023-03-02T05:04:32.856Z,77.31
2023-03-02T05:07:00.988Z,77.25
2023-03-02T05:09:30.862Z,77.04
2023-03-02T05:12:01.118Z,77.63
2023-03-02T05:14:30.905Z,77.95
2023-03-02T05:16:58.907Z,76.78
2023-03-02T05:19:26.750Z,77.51
2023-03-02T05:21:54.555Z,78.81
2023-03-02T05:24:22.337Z,79.37
2023-03-02T05:26:50.087Z,79.60
2023-03-02T05:29:17.813Z,79.40
2023-03-02T05:31:47.877Z,79.42
2023-03-02T05:34:17.186Z,81.22
2023-03-02T05:36:46.108Z,81.27
2023-03-02T05:39:14.110Z,79.32
2023-03-02T05:41:42.345Z,78.33
2023-03-02T05:44:12.016Z,78.76
2023-03-02T05:46:40.206Z,78.28
2023-03-02T05:49:10.568Z,80.39
2023-03-02T05:51:38.272Z,81.46
2023-03-02T05:54:06.049Z,80.75
2023-03-02T05:56:34.089Z,81.44
2023-03-02T05:59:02.039Z,81.51
2023-03-02T06:01:29.763Z,81.73
2023-03-02T06:03:57.499Z,83.07
2023-03-02T06:06:26.690Z,81.84
2023-03-02T06:08:54.422Z,83.92
2023-03-02T06:11:22.151Z,83.97
2023-03-02T06:13:49.924Z,85.54
2023-03-02T06:16:17.754Z,84.14
2023-03-02T06:18:45.558Z,82.88
2023-03-02T06:21:13.428Z,84.32
2023-03-02T06:23:42.544Z,83.38
2023-03-02T06:26:11.379Z,84.39
2023-03-02T06:28:51.550Z,83.32
2023-03-02T06:31:20.875Z,82.61
2023-03-02T06:33:48.691Z,83.55
2023-03-02T06:36:17.169Z,82.86
2023-03-02T06:38:46.344Z,84.29
2023-03-02T06:41:14.127Z,83.50
2023-03-02T06:43:41.953Z,83.29
2023-03-02T06:46:09.837Z,82.72
2023-03-02T06:48:37.660Z,82.99
2023-03-02T06:51:07.628Z,83.19
2023-03-02T06:53:35.388Z,83.01
2023-03-02T06:56:05.069Z,83.71
2023-03-02T06:58:32.780Z,83.87
2023-03-02T07:01:00.634Z,83.81
2023-03-02T07:03:28.419Z,83.50
2023-03-02T07:05:56.249Z,83.70
2023-03-02T07:08:24.035Z,83.84
2023-03-02T07:10:51.817Z,84.57
2023-03-02T07:13:21.177Z,84.79
2023-03-02T07:15:48.976Z,86.55
2023-03-02T07:18:16.709Z,85.87
2023-03-02T07:20:44.436Z,86.44
2023-03-02T07:23:12.236Z,85.24
2023-03-02T07:25:40.016Z,83.56
2023-03-02T07:28:07.932Z,85.02
2023-03-02T07:30:37.066Z,84.34
2023-03-02T07:33:04.977Z,83.83
2023-03-02T07:35:32.728Z,83.71
2023-03-02T07:38:00.430Z,84.39
2023-03-02T07:40:28.219Z,84.14
2023-03-02T07:42:56.022Z,84.02
2023-03-02T07:45:24.956Z,83.93
2023-03-02T07:47:54.120Z,83.32
2023-03-02T07:50:21.862Z,84.43
2023-03-02T07:52:49.606Z,84.29
2023-03-02T07:55:17.508Z,84.73
2023-03-02T07:57:45.235Z,84.25
2023-03-02T08:00:14.424Z,84.09
2023-03-02T08:02:42.804Z,84.42
2023-03-02T08:05:12.962Z,83.72
2023-03-02T08:07:42.232Z,82.74
2023-03-02T08:10:11.526Z,83.03
2023-03-02T08:12:39.343Z,83.22
2023-03-02T08:15:08.277Z,84.19
2023-03-02T08:17:36.060Z,81.85
2023-03-02T08:20:05.409Z,81.55
2023-03-02T08:22:34.562Z,82.65
2023-03-02T08:25:02.278Z,83.90
2023-03-02T08:27:30.296Z,83.13
2023-03-02T08:29:58.015Z,82.50
2023-03-02T08:32:25.808Z,83.97
2023-03-02T08:34:53.774Z,83.85
2023-03-02T08:37:21.541Z,82.12
2023-03-02T08:39:51.709Z,82.14
2023-03-02T08:42:19.488Z,83.46
2023-03-02T08:44:47.236Z,81.17
2023-03-02T08:47:14.976Z,81.14
2023-03-02T08:49:42.789Z,81.18
2023-03-02T08:52:10.574Z,82.28
2023-03-02T08:54:40.576Z,82.63
2023-03-02T08:57:11.897Z,82.46
2023-03-02T08:59:39.722Z,79.74
2023-03-02T09:02:07.985Z,80.69
2023-03-02T09:04:35.829Z,80.04
2023-03-02T09:07:03.566Z,78.90
2023-03-02T09:09:31.275Z,78.18
2023-03-02T09:11:59.058Z,78.15
2023-03-02T09:14:28.339Z,79.53
2023-03-02T09:16:56.141Z,77.95
2023-03-02T09:19:24.171Z,77.47
2023-03-02T09:21:51.943Z,76.01
2023-03-02T09:24:19.683Z,76.01
2023-03-02T09:26:47.608Z,75.48
2023-03-02T09:29:15.375Z,77.50
2023-03-02T09:31:44.510Z,75.60
2023-03-02T09:34:12.265Z,76.54
2023-03-02T09:36:39.958Z,77.97
2023-03-02T09:39:12.279Z,76.95
2023-03-02T09:42:19.572Z,76.45
2023-03-02T09:45:12.286Z,75.70
2023-03-02T09:47:49.080Z,75.73
2023-03-02T09:50:30.406Z,74.41
2023-03-02T09:53:16.550Z,73.66
2023-03-02T09:55:46.060Z,75.19
2023-03-02T09:58:18.474Z,74.79
2023-03-02T10:00:47.622Z,76.34
2023-03-02T10:03:19.149Z,74.88
2023-03-02T10:05:48.960Z,71.97
2023-03-02T10:08:20.721Z,74.04
2023-03-02T10:10:57.911Z,72.27
2023-03-02T10:13:30.377Z,71.27
2023-03-02T10:16:11.680Z,69.92
2023-03-02T10:18:46.170Z,70.49
2023-03-02T10:21:21.553Z,70.50
2023-03-02T10:23:57.380Z,69.22
2023-03-02T10:26:36.937Z,69.37
2023-03-02T10:29:19.145Z,68.39
2023-03-02T10:31:49.808Z,69.15
2023-03-02T10:34:19.823Z,67.49
2023-03-02T10:36:48.233Z,67.95
2023-03-02T10:39:18.515Z,67.85
2023-03-02T10:41:51.158Z,67.76
2023-03-02T10:44:23.800Z,66.69
2023-03-02T10:46:53.802Z,66.82
2023-03-02T10:49:28.908Z,64.30
2023-03-02T10:52:01.895Z,63.94
2023-03-02T10:54:32.439Z,62.37
2023-03-02T10:57:02.428Z,61.22
2023-03-02T10:59:43.229Z,62.98
2023-03-02T11:02:18.432Z,62.65
2023-03-02T11:04:47.711Z,63.09
2023-03-02T11:07:19.548Z,64.06
2023-03-02T11:10:01.849Z,61.46
2023-03-02T11:12:31.679Z,61.28
2023-03-02T11:15:15.827Z,59.89
2023-03-02T11:17:46.405Z,60.92
2023-03-02T11:20:21.238Z,61.39
2023-03-02T11:22:58.247Z,61.42
2023-03-02T11:25:31.647Z,59.21
2023-03-02T11:28:05.608Z,59.17
2023-03-02T11:30:37.420Z,58.70
2023-03-02T11:33:13.865Z,58.39
2023-03-02T11:35:49.495Z,59.03
2023-03-02T11:38:20.861Z,57.52
2023-03-02T11:40:52.692Z,56.48
2023-03-02T11:43:20.799Z,56.85
2023-03-02T11:45:52.875Z,55.90
2023-03-02T11:48:25.401Z,56.97
2023-03-02T11:50:58.436Z,57.27
2023-03-02T11:53:31.643Z,57.10
2023-03-02T11:55:59.551Z,56.25
2023-03-02T11:58:30.704Z,57.01
2023-03-02T12:00:58.829Z,56.14
2023-03-02T12:03:40.552Z,57.19
2023-03-02T12:06:28.798Z,56.52
2023-03-02T12:09:10.157Z,56.47
2023-03-02T12:11:40.396Z,56.77
2023-03-02T12:14:31.075Z,58.29
2023-03-02T12:17:08.398Z,57.10
2023-03-02T12:19:45.261Z,56.68
2023-03-02T12:22:15.349Z,57.59
2023-03-02T12:24:45.562Z,54.60
2023-03-02T12:27:26.478Z,55.36
2023-03-02T12:30:09.356Z,54.80
2023-03-02T12:32:37.325Z,55.30
2023-03-02T12:35:12.103Z,54.16
2023-03-02T12:37:47.265Z,54.48
2023-03-02T12:40:34.480Z,52.71
2023-03-02T12:43:30.772Z,52.91
2023-03-02T12:46:25.556Z,52.26
2023-03-02T12:49:00.586Z,54.47
2023-03-02T12:51:31.092Z,53.21
2023-03-02T12:54:13.452Z,52.96
2023-03-02T12:56:41.282Z,53.18
2023-03-02T12:59:20.532Z,53.10
2023-03-02T13:01:48.262Z,53.53
2023-03-02T13:04:24.512Z,52.90
2023-03-02T13:06:52.852Z,51.38
2023-03-02T13:09:23.839Z,51.03
2023-03-02T13:11:54.746Z,52.54
2023-03-02T13:14:26.175Z,52.26
2023-03-02T13:16:59.299Z,50.63
2023-03-02T13:19:28.270Z,49.76
2023-03-02T13:21:56.293Z,50.40
2023-03-02T13:24:33.668Z,51.15
2023-03-02T13:27:06.864Z,50.82
2023-03-02T13:29:35.441Z,51.56
2023-03-02T13:32:19.910Z,52.50
2023-03-02T13:34:50.454Z,50.83
2023-03-02T13:37:22.705Z,52.81
2023-03-02T13:39:59.773Z,52.52
2023-03-02T13:42:30.616Z,52.44
2023-03-02T13:44:58.360Z,51.33
2023-03-02T13:47:26.252Z,51.80
2023-03-02T13:49:54.045Z,51.48
2023-03-02T13:52:28.309Z,51.19
2023-03-02T13:54:56.358Z,51.36
2023-03-02T13:57:32.573Z,52.32
2023-03-02T14:00:01.064Z,51.15
2023-03-02T14:02:30.540Z,52.36
2023-03-02T14:04:58.839Z,53.29
2023-03-02T14:07:26.651Z,53.56
2023-03-02T14:09:56.556Z,52.49
2023-03-02T14:12:31.445Z,51.80
2023-03-02T14:15:02.546Z,52.64
2023-03-02T14:17:30.617Z,53.03
2023-03-02T14:19:59.060Z,51.69
2023-03-02T14:22:29.544Z,51.91
2023-03-02T14:24:57.388Z,52.32
2023-03-02T14:27:30.395Z,52.76
2023-03-02T14:29:58.278Z,52.37
2023-03-02T14:32:26.001Z,52.53
2023-03-02T14:34:53.777Z,51.41
2023-03-02T14:37:25.896Z,51.86
2023-03-02T14:39:55.558Z,52.05
2023-03-02T14:42:24.241Z,52.12
2023-03-02T14:44:53.643Z,51.37
2023-03-02T14:47:22.015Z,50.17
2023-03-02T14:49:49.855Z,50.80
2023-03-02T14:52:23.554Z,50.95
2023-03-02T14:54:53.942Z,50.64
2023-03-02T14:57:25.441Z,51.11
2023-03-02T14:59:56.122Z,51.67
2023-03-02T15:02:26.835Z,51.78
2023-03-02T15:04:56.926Z,51.32
2023-03-02T15:07:26.834Z,52.98
2023-03-02T15:09:55.189Z,55.05
2023-03-02T15:12:22.971Z,55.66
2023-03-02T15:14:50.709Z,55.91
2023-03-02T15:17:20.614Z,57.66
2023-03-02T15:19:48.938Z,57.96
2023-03-02T15:22:17.070Z,58.27
2023-03-02T15:24:44.836Z,59.58
2023-03-02T15:27:12.632Z,58.78
2023-03-02T15:29:44.337Z,60.68
2023-03-02T15:32:12.453Z,59.08
2023-03-02T15:34:41.881Z,58.56
2023-03-02T15:37:11.010Z,58.38
2023-03-02T15:39:38.763Z,57.91
2023-03-02T15:42:07.035Z,57.84
2023-03-02T15:44:34.775Z,57.91
2023-03-02T15:47:03.340Z,57.84
2023-03-02T15:49:32.890Z,57.19
2023-03-02T15:52:02.207Z,56.85
2023-03-02T15:54:30.287Z,56.40
2023-03-02T15:56:58.160Z,56.58
2023-03-02T15:59:28.261Z,56.26
2023-03-02T16:01:59.214Z,55.92
2023-03-02T16:04:27.673Z,56.32
2023-03-02T16:06:56.338Z,56.93
2023-03-02T16:09:28.756Z,57.87
2023-03-02T16:11:57.023Z,58.08
2023-03-02T16:14:24.898Z,57.96
2023-03-02T16:16:52.737Z,59.23
2023-03-02T16:19:20.758Z,58.42
2023-03-02T16:21:48.654Z,59.16
2023-03-02T16:24:17.269Z,59.19
2023-03-02T16:26:46.692Z,59.43
2023-03-02T16:29:15.294Z,59.63
2023-03-02T16:31:46.224Z,60.62
2023-03-02T16:34:14.377Z,60.58
2023-03-02T16:36:42.708Z,62.51
2023-03-02T16:39:11.963Z,63.03
2023-03-02T16:41:40.458Z,60.73
2023-03-02T16:44:10.163Z,61.21
2023-03-02T16:46:39.978Z,61.72
2023-03-02T16:49:11.235Z,62.32
2023-03-02T16:51:39.040Z,63.30
2023-03-02T16:54:06.970Z,62.59
2023-03-02T16:56:34.754Z,64.71
2023-03-02T16:59:02.466Z,63.55
2023-03-02T17:01:31.670Z,63.05
2023-03-02T17:03:59.502Z,62.75
2023-03-02T17:06:27.263Z,63.64
2023-03-02T17:08:54.971Z,63.65
2023-03-02T17:11:22.826Z,64.60
2023-03-02T17:13:50.702Z,63.78
2023-03-02T17:16:19.197Z,63.94
2023-03-02T17:18:48.294Z,63.63
2023-03-02T17:21:18.008Z,63.77
2023-03-02T17:23:48.074Z,64.33
2023-03-02T17:26:16.243Z,64.85
2023-03-02T17:28:44.028Z,65.20
2023-03-02T17:31:12.091Z,65.61
2023-03-02T17:33:40.290Z,65.94
2023-03-02T17:36:12.179Z,66.18
2023-03-02T17:38:40.541Z,66.05
2023-03-02T17:41:09.921Z,66.19
2023-03-02T17:43:39.316Z,66.87
2023-03-02T17:46:12.762Z,66.28
2023-03-02T17:48:40.432Z,66.91
2023-03-02T17:51:11.764Z,66.37
2023-03-02T17:53:39.882Z,67.14
2023-03-02T17:56:07.892Z,68.03
2023-03-02T17:58:44.556Z,68.97
2023-03-02T18:01:15.629Z,71.21
2023-03-02T18:03:44.943Z,68.85
2023-03-02T18:06:17.819Z,67.76
2023-03-02T18:08:45.899Z,67.07
2023-03-02T18:11:13.708Z,67.65
2023-03-02T18:13:41.403Z,66.21
2023-03-02T18:16:09.583Z,66.90
2023-03-02T18:18:37.598Z,66.10
2023-03-02T18:21:05.860Z,65.20
2023-03-02T18:23:34.964Z,66.28
2023-03-02T18:26:02.731Z,65.51
2023-03-02T18:28:30.534Z,66.10
2023-03-02T18:30:58.467Z,65.03
2023-03-02T18:33:26.187Z,65.85
2023-03-02T18:35:53.965Z,66.35
2023-03-02T18:38:21.716Z,66.26
2023-03-02T18:40:50.793Z,65.86
2023-03-02T18:43:18.540Z,66.93
2023-03-02T18:45:46.263Z,68.25
2023-03-02T18:48:14.069Z,67.41
2023-03-02T18:50:42.638Z,68.46
2023-03-02T18:53:12.792Z,69.01
2023-03-02T18:55:41.327Z,69.86
2023-03-02T18:58:18.045Z,69.73
2023-03-02T19:00:46.755Z,71.08
2023-03-02T19:03:16.066Z,72.17
2023-03-02T19:05:44.637Z,72.42
2023-03-02T19:08:13.249Z,72.77
2023-03-02T19:10:42.387Z,72.09
2023-03-02T19:13:11.790Z,72.79
2023-03-02T19:15:40.592Z,72.03
2023-03-02T19:18:08.496Z,73.08
2023-03-02T19:20:36.902Z,73.63
2023-03-02T19:23:04.696Z,74.62
2023-03-02T19:25:32.502Z,75.01
2023-03-02T19:28:02.259Z,78.23
2023-03-02T19:30:31.820Z,76.54
2023-03-02T19:32:59.541Z,76.93
2023-03-02T19:35:28.809Z,74.59
2023-03-02T19:37:57.187Z,76.16
2023-03-02T19:40:28.366Z,77.42
2023-03-02T19:42:57.344Z,75.13
2023-03-02T19:45:27.231Z,77.67
2023-03-02T19:47:57.778Z,77.61
2023-03-02T19:50:26.707Z,76.88
2023-03-02T19:52:54.844Z,78.52
2023-03-02T19:55:24.211Z,77.90
2023-03-02T19:57:59.442Z,78.75
2023-03-02T20:00:29.988Z,77.70
2023-03-02T20:02:59.237Z,78.64
2023-03-02T20:05:28.126Z,80.05
2023-03-02T20:07:56.232Z,79.08
2023-03-02T20:10:30.253Z,78.88
2023-03-02T20:12:59.339Z,78.21
2023-03-02T20:15:27.627Z,78.23
2023-03-02T20:17:55.432Z,79.37
2023-03-02T20:20:26.937Z,80.04
2023-03-02T20:22:54.917Z,79.42
2023-03-02T20:25:22.984Z,79.47
2023-03-02T20:27:51.839Z,77.01
2023-03-02T20:30:23.491Z,77.64
2023-03-02T20:32:51.215Z,77.31
2023-03-02T20:35:19.106Z,78.52
2023-03-02T20:37:49.100Z,77.34
2023-03-02T20:40:18.925Z,77.30
2023-03-02T20:42:46.656Z,77.42
2023-03-02T20:45:15.078Z,78.85
2023-03-02T20:47:44.142Z,78.24
2023-03-02T20:50:16.143Z,77.89
2023-03-02T20:52:43.940Z,78.83
2023-03-02T20:55:13.502Z,79.14
2023-03-02T20:57:41.355Z,77.97
2023-03-02T21:00:22.863Z,79.81
2023-03-02T21:02:50.884Z,80.19
2023-03-02T21:05:19.901Z,79.92
2023-03-02T21:07:48.046Z,81.02
2023-03-02T21:10:20.583Z,79.68
2023-03-02T21:12:49.042Z,81.78
2023-03-02T21:15:19.074Z,81.75
2023-03-02T21:17:47.237Z,81.90
2023-03-02T21:20:18.346Z,81.04
2023-03-02T21:22:46.625Z,81.40
2023-03-02T21:25:17.040Z,80.44
2023-03-02T21:27:46.615Z,80.16
2023-03-02T21:30:19.972Z,80.45
2023-03-02T21:32:48.101Z,82.18
2023-03-02T21:35:18.012Z,82.81
2023-03-02T21:37:45.785Z,82.71
2023-03-02T21:40:17.178Z,82.14
2023-03-02T21:42:46.328Z,82.98
2023-03-02T21:45:14.770Z,83.89
2023-03-02T21:47:43.668Z,84.40
2023-03-02T21:50:15.738Z,84.49
2023-03-02T21:52:43.492Z,85.25
2023-03-02T21:55:13.037Z,85.07
2023-03-02T21:57:40.773Z,86.06
2023-03-02T22:00:22.094Z,85.79
2023-03-02T22:02:50.094Z,84.41
2023-03-02T22:05:19.094Z,84.59
2023-03-02T22:07:47.718Z,85.51
2023-03-02T22:10:27.717Z,85.36
2023-03-02T22:12:58.551Z,85.10
2023-03-02T22:15:28.145Z,85.43
2023-03-02T22:17:56.602Z,84.59
2023-03-02T22:20:24.556Z,83.08
2023-03-02T22:22:54.563Z,83.23
2023-03-02T22:25:22.456Z,82.89
2023-03-02T22:27:50.247Z,83.68
2023-03-02T22:30:21.867Z,83.73
2023-03-02T22:32:51.247Z,83.46
2023-03-02T22:35:23.383Z,82.84
2023-03-02T22:37:52.835Z,83.29
2023-03-02T22:40:30.342Z,84.92
2023-03-02T22:43:12.045Z,85.75
2023-03-02T22:45:41.234Z,84.36
2023-03-02T22:48:16.132Z,84.58
2023-03-02T22:50:45.486Z,85.08
2023-03-02T22:53:29.004Z,84.57
2023-03-02T22:55:59.263Z,84.92
2023-03-02T22:58:43.399Z,84.53
2023-03-02T23:01:20.892Z,83.64
2023-03-02T23:03:52.107Z,84.41
2023-03-02T23:06:31.792Z,84.47
2023-03-02T23:09:01.802Z,85.29
2023-03-02T23:11:32.448Z,85.38
2023-03-02T23:14:02.827Z,85.63
2023-03-02T23:16:36.863Z,87.87
2023-03-02T23:19:06.135Z,86.55
2023-03-02T23:21:38.554Z,85.86
2023-03-02T23:24:07.849Z,87.48
2023-03-02T23:26:35.649Z,86.16
2023-03-02T23:29:03.448Z,86.18
2023-03-02T23:31:31.382Z,87.44
2023-03-02T23:33:59.175Z,88.71
2023-03-02T23:36:28.273Z,86.38
2023-03-02T23:38:56.056Z,88.84
2023-03-02T23:41:23.898Z,88.10
2023-03-02T23:43:51.658Z,88.51
2023-03-02T23:46:19.473Z,90.32
2023-03-02T23:48:47.814Z,89.83
2023-03-02T23:51:15.985Z,88.36
2023-03-02T23:53:45.777Z,88.95
2023-03-02T23:56:13.582Z,90.61
2023-03-02T23:58:41.391Z,91.45
